Time;durP1;ratioP1;P1;durP2;ratioP2;P2;SDS_P1;SDS_P2;PMS_P1;PMS_P2;Temp;Humidity;BMP_temperature;BMP_pressure;BME280_temperature;BME280_humidity;BME280_pressure;Samples;Min_cycle;Max_cycle;Signal;HPM_P1;HPM_P2
2022/10/12 00:00:29;;;;;;;7.22;4.43;;;;;;;11.54;100.00;96298.22;6175454;23;20502;-69
2022/10/12 00:02:55;;;;;;;4.75;4.20;;;;;;;11.52;100.00;96300.16;6175746;23;19997;-69
2022/10/12 00:05:20;;;;;;;6.30;4.20;;;;;;;11.48;100.00;96299.59;6176088;23;20009;-69
2022/10/12 00:07:45;;;;;;;7.75;4.38;;;;;;;11.49;100.00;96305.72;6175305;23;20047;-69
2022/10/12 00:10:11;;;;;;;7.68;3.95;;;;;;;11.49;100.00;96298.63;6175776;23;20035;-69
2022/10/12 00:12:36;;;;;;;13.18;5.20;;;;;;;11.52;100.00;96300.16;6175891;23;20504;-70
2022/10/12 00:15:02;;;;;;;6.82;4.38;;;;;;;11.50;100.00;96302.09;6175123;23;20006;-69
2022/10/12 00:17:28;;;;;;;5.70;4.45;;;;;;;11.48;100.00;96296.94;6175244;23;20335;-65
2022/10/12 00:19:53;;;;;;;6.82;4.47;;;;;;;11.48;100.00;96299.59;6175802;23;20013;-66
2022/10/12 00:22:19;;;;;;;7.82;4.57;;;;;;;11.48;100.00;96293.50;6175881;23;19997;-66
2022/10/12 00:24:44;;;;;;;12.75;4.38;;;;;;;11.46;100.00;96297.09;6175429;23;20025;-66
2022/10/12 00:27:10;;;;;;;6.18;3.85;;;;;;;11.49;100.00;96303.06;6175058;23;20016;-66
2022/10/12 00:29:35;;;;;;;7.82;4.15;;;;;;;11.52;100.00;96303.66;6176554;23;20316;-66
2022/10/12 00:32:00;;;;;;;6.47;4.55;;;;;;;11.51;100.00;96301.13;6177536;23;20001;-66
2022/10/12 00:34:26;;;;;;;6.28;3.88;;;;;;;11.51;100.00;96298.50;6176570;23;20514;-66
2022/10/12 00:36:52;;;;;;;10.00;4.53;;;;;;;11.48;100.00;96301.41;6176974;23;20038;-56
2022/10/12 00:39:18;;;;;;;9.02;4.60;;;;;;;11.48;100.00;96304.84;6150633;23;20009;-69
2022/10/12 00:41:43;;;;;;;11.80;4.45;;;;;;;11.49;100.00;96303.06;6177204;23;20011;-70
2022/10/12 00:44:39;;;;;;;7.50;4.22;;;;;;;11.49;100.00;96297.78;6176332;23;20013;-69
2022/10/12 00:47:29;;;;;;;5.53;4.90;;;;;;;11.48;100.00;96301.41;6176382;23;20438;-70
2022/10/12 00:50:30;;;;;;;4.43;3.95;;;;;;;11.46;100.00;96298.88;6177578;22;20019;-70
2022/10/12 00:53:08;;;;;;;8.20;4.40;;;;;;;11.46;100.00;96298.88;6177083;23;20080;-69
2022/10/12 00:55:39;;;;;;;5.88;4.38;;;;;;;11.45;100.00;96303.34;6176196;23;20126;-69
2022/10/12 00:58:07;;;;;;;5.80;4.68;;;;;;;11.49;100.00;96300.44;6176570;23;20073;-70
2022/10/12 01:00:33;;;;;;;4.88;4.47;;;;;;;11.49;100.00;96303.88;6174836;22;20024;-69
2022/10/12 01:02:59;;;;;;;5.47;4.88;;;;;;;11.45;100.00;96295.44;6176517;23;20490;-70
2022/10/12 01:05:25;;;;;;;5.00;4.60;;;;;;;11.43;100.00;96297.38;6176043;23;20028;-69
2022/10/12 01:07:51;;;;;;;6.50;4.70;;;;;;;11.44;100.00;96292.91;6176909;23;20517;-69
2022/10/12 01:10:16;;;;;;;7.95;4.82;;;;;;;11.41;100.00;96301.94;6177115;23;20001;-69
2022/10/12 01:12:45;;;;;;;6.97;4.00;;;;;;;11.39;100.00;96295.97;6176752;23;20012;-69
2022/10/12 01:15:11;;;;;;;8.15;4.35;;;;;;;11.38;100.00;96298.72;6176748;22;20015;-66
2022/10/12 01:17:54;;;;;;;9.82;4.70;;;;;;;11.37;100.00;96300.50;6175387;23;20001;-63
2022/10/12 01:21:01;;;;;;;4.40;4.00;;;;;;;11.38;100.00;96299.53;6177399;23;20013;-62
2022/10/12 01:23:45;;;;;;;;;;;;;;;11.35;100.00;96293.72;6178439;23;20080;-62
2022/10/12 01:26:28;;;;;;;7.75;4.82;;;;;;;11.34;100.00;96297.31;6176206;22;19912;-62
2022/10/12 01:29:18;;;;;;;12.30;4.40;;;;;;;11.32;100.00;96289.53;6176687;23;20447;-61
2022/10/12 01:31:51;;;;;;;9.27;4.95;;;;;;;11.34;100.00;96297.31;6177004;23;20025;-62
2022/10/12 01:34:41;;;;;;;8.05;4.72;;;;;;;11.30;100.00;96299.38;6176361;23;20083;-65
2022/10/12 01:37:06;;;;;;;12.15;5.20;;;;;;;11.28;100.00;96296.03;6175442;23;20001;-62
2022/10/12 01:39:45;;;;;;;10.75;6.25;;;;;;;11.29;100.00;96295.91;6176683;23;20004;-62
2022/10/12 01:42:16;;;;;;;12.93;4.90;;;;;;;11.26;100.00;96290.88;6176994;23;19997;-62
2022/10/12 01:44:42;;;;;;;9.02;5.00;;;;;;;11.22;100.00;96289.47;6176028;23;20466;-62
2022/10/12 01:47:07;;;;;;;8.90;4.40;;;;;;;11.26;100.00;96292.69;6176138;22;20001;-62
2022/10/12 01:49:34;;;;;;;4.80;4.38;;;;;;;11.24;100.00;96290.19;6176344;23;20009;-62
2022/10/12 01:52:29;;;;;;;5.85;3.95;;;;;;;11.23;100.00;96293.78;6177141;23;20039;-62
2022/10/12 01:55:33;;;;;;;7.10;5.50;;;;;;;11.25;100.00;96285.75;6176231;23;20414;-55
2022/10/12 01:58:32;;;;;;;7.30;4.40;;;;;;;11.24;100.00;96290.19;6175525;23;20009;-63
2022/10/12 02:01:16;;;;;;;6.05;3.90;;;;;;;11.23;100.00;96275.34;6150296;22;20511;-62
2022/10/12 02:04:05;;;;;;;6.90;4.63;;;;;;;11.21;100.00;96279.09;6176241;23;20065;-62
2022/10/12 02:06:38;;;;;;;6.80;5.03;;;;;;;11.17;100.00;96279.34;6175992;23;20005;-62
2022/10/12 02:09:13;;;;;;;10.25;4.70;;;;;;;11.15;100.00;96270.72;6176773;22;20338;-62
2022/10/12 02:11:41;;;;;;;11.32;4.50;;;;;;;11.17;100.00;96265.34;6176318;23;20084;-62
2022/10/12 02:14:13;;;;;;;5.70;4.28;;;;;;;11.17;100.00;96265.34;6176616;23;20022;-56
2022/10/12 02:16:49;;;;;;;8.23;5.10;;;;;;;11.17;100.00;96271.44;6176000;22;20028;-63
2022/10/12 02:19:18;;;;;;;15.57;5.30;;;;;;;11.15;100.00;96264.63;6176299;23;20368;-63
2022/10/12 02:21:46;;;;;;;7.00;4.60;;;;;;;11.15;100.00;96270.72;6176484;23;20012;-64
2022/10/12 02:24:14;;;;;;;11.82;4.15;;;;;;;11.16;100.00;96264.50;6176134;22;20079;-63
2022/10/12 02:26:42;;;;;;;13.27;4.70;;;;;;;11.16;100.00;96266.31;6175852;23;20001;-64
2022/10/12 02:29:20;;;;;;;7.07;4.60;;;;;;;11.16;100.00;96264.50;6176229;23;20335;-63
2022/10/12 02:31:53;;;;;;;5.55;4.80;;;;;;;11.16;100.00;96258.41;6176637;23;20058;-68
2022/10/12 02:34:51;;;;;;;8.30;4.50;;;;;;;11.14;100.00;96255.88;6176372;23;19997;-69
2022/10/12 02:37:32;;;;;;;10.20;6.53;;;;;;;11.14;100.00;96257.69;6174737;23;20020;-69
2022/10/12 02:40:22;;;;;;;9.48;4.25;;;;;;;11.16;100.00;96259.25;6176385;23;20012;-69
2022/10/12 02:42:54;;;;;;;9.75;4.53;;;;;;;11.15;100.00;96249.63;6176373;23;19997;-69
2022/10/12 02:45:23;;;;;;;7.03;3.92;;;;;;;11.10;100.00;96251.84;6176546;23;19997;-69
2022/10/12 02:47:51;;;;;;;7.47;4.38;;;;;;;11.06;100.00;96244.34;6175506;23;20007;-69
2022/10/12 02:50:18;;;;;;;6.03;4.50;;;;;;;11.06;100.00;96250.44;6176373;23;20035;-69
2022/10/12 02:52:45;;;;;;;11.65;4.43;;;;;;;11.06;100.00;96254.91;6176183;23;20009;-69
2022/10/12 02:55:11;;;;;;;7.72;4.22;;;;;;;11.02;100.00;96249.03;6175880;23;19997;-69
2022/10/12 02:57:36;;;;;;;7.72;5.13;;;;;;;11.03;100.00;96240.16;6175681;23;20001;-69
2022/10/12 03:00:02;;;;;;;7.03;4.47;;;;;;;11.01;100.00;96255.28;6176513;23;20019;-69
2022/10/12 03:02:27;;;;;;;13.77;12.02;;;;;;;11.00;100.00;96253.59;6176306;23;20011;-69
2022/10/12 03:04:53;;;;;;;11.07;6.47;;;;;;;11.00;100.00;96250.97;6150071;23;20465;-69
2022/10/12 03:07:19;;;;;;;8.32;5.07;;;;;;;10.94;100.00;96249.69;6175532;23;20001;-69
2022/10/12 03:09:44;;;;;;;4.40;4.07;;;;;;;10.89;100.00;96251.88;6176133;23;20756;-69
2022/10/12 03:12:09;;;;;;;5.05;3.92;;;;;;;10.87;100.00;96246.72;6175925;23;20008;-64
2022/10/12 03:14:36;;;;;;;6.05;4.30;;;;;;;10.89;100.00;96251.88;6176086;23;20464;-59
2022/10/12 03:17:02;;;;;;;7.38;4.88;;;;;;;10.87;100.00;96252.00;6175758;22;20158;-59
2022/10/12 03:19:27;;;;;;;8.77;4.45;;;;;;;10.84;100.00;96247.00;6175726;23;20023;-59
2022/10/12 03:21:52;;;;;;;4.57;4.18;;;;;;;10.84;100.00;96246.19;6150237;23;20077;-59
2022/10/12 03:24:18;;;;;;;4.40;3.97;;;;;;;10.83;100.00;96247.13;6176051;23;20494;-59
2022/10/12 03:26:43;;;;;;;7.78;4.85;;;;;;;10.84;100.00;96249.63;6175322;23;20013;-59
2022/10/12 03:29:09;;;;;;;6.88;4.47;;;;;;;10.84;100.00;96240.91;6175772;23;20077;-69
2022/10/12 03:31:34;;;;;;;7.55;4.53;;;;;;;10.86;100.00;96242.44;6175800;23;20439;-65
2022/10/12 03:33:59;;;;;;;5.10;4.45;;;;;;;10.86;100.00;96245.06;6175574;23;20001;-63
2022/10/12 03:36:25;;;;;;;7.72;4.32;;;;;;;10.84;100.00;96244.38;6175497;23;19997;-64
2022/10/12 03:38:50;;;;;;;5.00;4.40;;;;;;;10.84;100.00;96243.53;6176143;23;20009;-64
2022/10/12 03:41:16;;;;;;;7.22;4.05;;;;;;;10.82;100.00;96250.72;6149815;23;20005;-64
2022/10/12 03:43:41;;;;;;;6.00;4.30;;;;;;;10.83;100.00;96247.97;6175883;23;20089;-63
2022/10/12 03:46:07;;;;;;;5.25;4.40;;;;;;;10.81;100.00;96249.91;6175470;23;19998;-64
2022/10/12 03:48:32;;;;;;;7.13;4.80;;;;;;;10.84;100.00;96248.81;6175860;23;20483;-63
2022/10/12 03:50:57;;;;;;;7.70;4.63;;;;;;;10.84;100.00;96251.44;6175986;23;20001;-66
2022/10/12 03:53:23;;;;;;;7.18;4.80;;;;;;;10.83;100.00;96247.13;6176230;23;20024;-69
2022/10/12 03:55:48;;;;;;;4.82;4.25;;;;;;;10.83;100.00;96247.97;6174959;23;20386;-69
2022/10/12 03:58:13;;;;;;;7.25;4.93;;;;;;;10.85;100.00;96251.31;6175905;23;20011;-69
2022/10/12 04:00:39;;;;;;;6.43;4.53;;;;;;;10.83;100.00;96247.97;6176195;23;20005;-70
2022/10/12 04:03:04;;;;;;;5.03;4.28;;;;;;;10.84;100.00;96249.63;6176528;23;20036;-69
2022/10/12 04:05:31;;;;;;;8.75;4.30;;;;;;;10.84;100.00;96246.19;6176544;23;20024;-70
2022/10/12 04:07:57;;;;;;;7.43;4.55;;;;;;;10.81;100.00;96244.63;6176817;23;20463;-69
2022/10/12 04:10:22;;;;;;;5.22;4.15;;;;;;;10.79;100.00;96241.28;6177502;23;20001;-57
2022/10/12 04:12:48;;;;;;;4.50;4.10;;;;;;;10.78;100.00;96246.69;6177171;23;20001;-63
2022/10/12 04:15:13;;;;;;;6.90;4.57;;;;;;;10.74;100.00;96248.75;6177045;23;20001;-63
2022/10/12 04:17:39;;;;;;;7.30;4.18;;;;;;;10.66;100.00;96251.19;6176731;23;20087;-63
2022/10/12 04:20:05;;;;;;;6.35;4.82;;;;;;;10.66;100.00;96244.13;6177161;23;20047;-63
2022/10/12 04:22:31;;;;;;;8.27;4.60;;;;;;;10.68;100.00;96258.00;6177348;23;20080;-63
2022/10/12 04:24:56;;;;;;;9.38;4.40;;;;;;;10.66;100.00;96254.66;6176592;23;20040;-63
2022/10/12 04:27:22;;;;;;;4.95;4.07;;;;;;;10.67;100.00;96250.22;6176776;23;20100;-65
2022/10/12 04:29:47;;;;;;;4.40;4.00;;;;;;;10.68;100.00;96254.50;6177128;23;20001;-59
2022/10/12 04:32:12;;;;;;;5.28;4.28;;;;;;;10.68;100.00;96247.47;6177429;23;20008;-59
2022/10/12 04:34:38;;;;;;;8.48;4.80;;;;;;;10.72;100.00;96253.28;6176703;23;20013;-59
2022/10/12 04:37:04;;;;;;;6.75;4.45;;;;;;;10.72;100.00;96254.13;6176491;23;20046;-59
2022/10/12 04:39:29;;;;;;;8.52;4.15;;;;;;;10.77;100.00;96253.75;6177094;23;20105;-59
2022/10/12 04:41:55;;;;;;;7.38;4.55;;;;;;;10.81;100.00;96254.31;6151208;23;19997;-60
2022/10/12 04:44:21;;;;;;;4.78;4.38;;;;;;;10.81;100.00;96247.25;6177267;23;20008;-59
2022/10/12 04:46:46;;;;;;;4.70;4.20;;;;;;;10.82;100.00;96262.09;6176393;23;20081;-66
2022/10/12 04:49:12;;;;;;;5.50;4.07;;;;;;;10.83;100.00;96250.59;6177231;23;19997;-59
2022/10/12 04:51:37;;;;;;;8.35;4.20;;;;;;;10.85;100.00;96248.66;6177016;23;20267;-56
2022/10/12 04:54:03;;;;;;;6.15;4.13;;;;;;;10.87;100.00;96252.00;6176746;23;20025;-56
2022/10/12 04:56:28;;;;;;;5.25;4.72;;;;;;;10.90;100.00;96253.56;6176429;23;20021;-56
2022/10/12 04:58:54;;;;;;;4.35;4.03;;;;;;;10.92;100.00;96253.41;6177016;23;20016;-57
2022/10/12 05:01:19;;;;;;;9.10;4.47;;;;;;;10.96;100.00;96257.47;6176876;23;20001;-56
2022/10/12 05:03:44;;;;;;;4.97;3.60;;;;;;;10.98;100.00;96264.25;6176727;23;20908;-56
2022/10/12 05:06:10;;;;;;;5.03;4.10;;;;;;;11.01;100.00;96261.38;6176296;23;19997;-67
2022/10/12 05:08:35;;;;;;;16.70;4.40;;;;;;;11.02;100.00;96256.94;6176490;23;20005;-68
2022/10/12 05:11:00;;;;;;;7.53;4.45;;;;;;;11.02;100.00;96260.41;6176725;23;20336;-69
2022/10/12 05:13:27;;;;;;;5.00;4.10;;;;;;;11.05;100.00;96261.94;6177106;23;20035;-70
2022/10/12 05:15:52;;;;;;;11.77;4.15;;;;;;;11.07;100.00;96261.81;6176760;22;20507;-69
2022/10/12 05:18:18;;;;;;;5.28;4.88;;;;;;;11.10;100.00;96262.38;6176860;23;20079;-69
2022/10/12 05:20:43;;;;;;;10.98;5.00;;;;;;;11.12;100.00;96257.81;6176796;23;20123;-69
2022/10/12 05:23:10;;;;;;;5.32;4.88;;;;;;;11.15;100.00;96262.81;6176856;23;20001;-69
2022/10/12 05:25:36;;;;;;;9.82;4.47;;;;;;;11.18;100.00;96269.63;6176458;23;20024;-67
2022/10/12 05:28:01;;;;;;;6.40;4.35;;;;;;;11.21;100.00;96261.47;6176878;23;20194;-60
2022/10/12 05:30:27;;;;;;;7.40;4.80;;;;;;;11.21;100.00;96263.28;6176718;23;20021;-63
2022/10/12 05:32:52;;;;;;;5.72;4.22;;;;;;;11.21;100.00;96263.28;6176990;23;20001;-63
2022/10/12 05:35:18;;;;;;;8.02;4.10;;;;;;;11.21;100.00;96269.38;6176858;23;19997;-63
2022/10/12 05:37:43;;;;;;;7.93;4.93;;;;;;;11.22;100.00;96264.94;6175942;23;20447;-63
2022/10/12 05:40:09;;;;;;;10.93;5.50;;;;;;;11.23;100.00;96270.06;6176843;23;20427;-63
2022/10/12 05:42:35;;;;;;;7.00;5.30;;;;;;;11.24;100.00;96265.66;6176945;22;20062;-63
2022/10/12 05:45:01;;;;;;;12.88;4.18;;;;;;;11.24;100.00;96265.66;6175712;23;20001;-63
2022/10/12 05:47:26;;;;;;;8.43;4.32;;;;;;;11.26;100.00;96261.06;6176281;23;20008;-65
2022/10/12 05:49:51;;;;;;;8.50;4.60;;;;;;;11.26;100.00;96263.72;6177339;23;20093;-60
2022/10/12 05:52:17;;;;;;;4.53;4.10;;;;;;;11.28;100.00;96259.13;6176684;23;20047;-59
2022/10/12 05:54:42;;;;;;;14.43;4.93;;;;;;;11.29;100.00;96263.44;6176701;23;20028;-60
2022/10/12 05:57:08;;;;;;;8.75;3.92;;;;;;;11.29;100.00;96264.28;6176299;23;20387;-59
2022/10/12 05:59:33;;;;;;;6.38;3.90;;;;;;;11.28;100.00;96264.41;6150234;22;20059;-59
2022/10/12 06:01:59;;;;;;;7.72;4.50;;;;;;;11.24;100.00;96265.66;6176576;23;20001;-60
2022/10/12 06:04:24;;;;;;;7.70;4.20;;;;;;;11.21;100.00;96271.19;6177086;23;19997;-69
2022/10/12 06:06:49;;;;;;;7.50;4.15;;;;;;;11.16;100.00;96272.41;6176429;23;20427;-67
2022/10/12 06:09:15;;;;;;;11.73;3.95;;;;;;;11.12;100.00;96276.25;6176702;23;20002;-59
2022/10/12 06:11:40;;;;;;;7.28;4.30;;;;;;;11.09;100.00;96273.88;6176587;23;20320;-59
2022/10/12 06:14:06;;;;;;;5.63;5.05;;;;;;;11.09;100.00;96278.34;6176366;23;20005;-59
2022/10/12 06:16:31;;;;;;;5.40;4.30;;;;;;;11.10;100.00;96285.28;6176527;23;20040;-59
2022/10/12 06:18:57;;;;;;;10.07;5.05;;;;;;;11.11;100.00;96284.31;6175874;23;20009;-59
2022/10/12 06:21:22;;;;;;;7.50;4.60;;;;;;;11.10;100.00;96280.00;6177309;23;20047;-59
2022/10/12 06:23:48;;;;;;;6.22;4.30;;;;;;;11.06;100.00;96276.78;6175974;23;20445;-68
2022/10/12 06:26:13;;;;;;;5.00;3.70;;;;;;;11.07;100.00;96286.38;6176081;23;20001;-57
2022/10/12 06:28:39;;;;;;;10.30;4.20;;;;;;;11.06;100.00;96284.69;6176123;23;20067;-68
2022/10/12 06:31:04;;;;;;;6.75;4.68;;;;;;;11.06;100.00;96284.69;6176778;23;20008;-70
2022/10/12 06:33:29;;;;;;;5.57;4.00;;;;;;;11.05;100.00;96277.75;6176701;23;20082;-70
2022/10/12 06:35:55;;;;;;;8.88;4.82;;;;;;;11.09;100.00;96287.06;6176763;23;20011;-69
2022/10/12 06:38:21;;;;;;;6.38;4.20;;;;;;;11.11;100.00;96282.50;6149315;22;20005;-71
2022/10/12 06:40:47;;;;;;;9.63;5.07;;;;;;;11.14;100.00;96282.22;6176300;23;20008;-70
2022/10/12 06:43:12;;;;;;;8.38;4.07;;;;;;;11.18;100.00;96281.03;6176401;23;20001;-67
2022/10/12 06:45:39;;;;;;;9.30;5.30;;;;;;;11.22;100.00;96278.94;6176974;22;19997;-64
2022/10/12 06:48:05;;;;;;;7.00;4.88;;;;;;;11.24;100.00;96276.19;6176165;22;19994;-66
2022/10/12 06:50:30;;;;;;;7.03;4.32;;;;;;;11.27;100.00;96274.13;6177070;23;20009;-67
2022/10/12 06:52:56;;;;;;;4.70;4.30;;;;;;;11.31;100.00;96274.69;6175438;23;19996;-66
2022/10/12 06:55:21;;;;;;;13.68;5.10;;;;;;;11.36;100.00;96276.94;6177056;23;20503;-66
2022/10/12 06:57:46;;;;;;;9.25;8.50;;;;;;;11.41;100.00;96275.56;6175379;23;20066;-66
2022/10/12 07:00:13;;;;;;;12.27;7.32;;;;;;;11.46;100.00;96276.00;6176758;23;20565;-66
2022/10/12 07:02:39;;;;;;;6.93;5.75;;;;;;;11.52;100.00;96279.06;6148581;22;20032;-67
2022/10/12 07:05:06;;;;;;;9.48;5.75;;;;;;;11.58;100.00;96282.00;6175193;23;20004;-57
2022/10/12 07:07:33;;;;;;;5.32;4.80;;;;;;;11.65;100.00;96284.94;6174751;23;20005;-66
2022/10/12 07:09:59;;;;;;;9.38;5.05;;;;;;;11.72;100.00;96280.81;6174892;23;20656;-67
2022/10/12 07:12:25;;;;;;;8.02;5.53;;;;;;;11.81;100.00;96283.59;6176322;23;20001;-67
2022/10/12 07:14:50;;;;;;;11.25;4.60;;;;;;;11.86;100.00;96289.31;6176373;23;20343;-66
2022/10/12 07:17:16;;;;;;;6.03;3.92;;;;;;;11.90;100.00;96286.25;6175602;23;20050;-67
2022/10/12 07:19:41;;;;;;;5.32;3.95;;;;;;;12.00;100.00;96296.81;6175249;23;20371;-68
2022/10/12 07:22:06;;;;;;;5.15;3.92;;;;;;;12.15;100.00;96296.47;6175353;23;20749;-68
2022/10/12 07:24:35;;;;;;;5.05;4.10;;;;;;;12.24;100.00;96300.91;6175974;23;20045;-60
2022/10/12 07:27:08;;;;;;;8.32;4.65;;;;;;;12.37;100.00;96299.84;6176027;23;20420;-70
2022/10/12 07:29:35;;;;;;;9.38;4.82;;;;;;;12.52;100.00;96306.38;6176689;23;20478;-69
2022/10/12 07:32:00;;;;;;;18.75;16.65;;;;;;;12.66;100.00;96299.84;6176362;23;20021;-69
2022/10/12 07:34:27;;;;;;;17.35;15.80;;;;;;;12.79;100.00;96304.81;6175976;23;20432;-69
2022/10/12 07:36:52;;;;;;;13.95;10.30;;;;;;;12.92;100.00;96303.69;6175724;23;20001;-68
2022/10/12 07:39:19;;;;;;;17.02;9.18;;;;;;;13.00;100.00;96301.19;6176164;23;20055;-68
2022/10/12 07:41:44;;;;;;;15.88;8.55;;;;;;;13.07;100.00;96310.19;6149684;23;20066;-71
2022/10/12 07:44:10;;;;;;;12.63;9.27;;;;;;;13.17;100.00;96313.69;6176283;23;20001;-60
2022/10/12 07:46:35;;;;;;;12.70;6.75;;;;;;;13.31;100.00;96311.53;6175465;23;19997;-55
2022/10/12 07:49:01;;;;;;;13.52;7.10;;;;;;;13.39;100.00;96314.31;6175286;23;19997;-56
2022/10/12 07:51:27;;;;;;;12.15;6.38;;;;;;;13.49;100.00;96318.75;6176366;23;20057;-58
2022/10/12 07:53:52;;;;;;;8.27;5.47;;;;;;;13.53;100.00;96314.84;6175974;23;20423;-56
2022/10/12 07:56:18;;;;;;;11.00;6.13;;;;;;;13.56;100.00;96319.81;6175678;23;20342;-55
2022/10/12 07:58:51;;;;;;;8.63;6.22;;;;;;;13.58;100.00;96328.44;6175528;22;20055;-56
2022/10/12 08:01:18;;;;;;;10.25;6.10;;;;;;;13.59;100.00;96332.75;6176231;23;20741;-69
2022/10/12 08:03:44;;;;;;;8.88;5.78;;;;;;;13.58;100.00;96329.28;6175116;23;20001;-61
2022/10/12 08:06:15;;;;;;;10.02;5.40;;;;;;;13.59;100.00;96330.13;6176117;23;20019;-69
2022/10/12 08:08:41;;;;;;;7.13;5.10;;;;;;;13.66;100.00;96333.88;6175544;23;20062;-69
2022/10/12 08:11:08;;;;;;;4.10;3.70;;;;;;;13.68;100.00;96336.34;6176027;23;20343;-69
2022/10/12 08:13:34;;;;;;;6.53;3.60;;;;;;;13.64;100.00;96325.25;6175736;23;20087;-70
2022/10/12 08:16:04;;;;;;;4.32;3.72;;;;;;;13.65;100.00;96332.19;6175507;23;20009;-69
2022/10/12 08:18:30;;;;;;;8.32;4.13;;;;;;;13.71;100.00;96326.31;6174825;23;20036;-70
2022/10/12 08:20:56;;;;;;;5.68;3.97;;;;;;;13.84;100.00;96331.28;6176035;23;20419;-65
2022/10/12 08:23:21;;;;;;;5.95;4.88;;;;;;;13.97;100.00;96335.41;6149615;23;20386;-72
2022/10/12 08:25:52;;;;;;;9.50;4.53;;;;;;;14.06;100.00;96329.22;6148817;22;20087;-66
2022/10/12 08:28:17;;;;;;;4.20;3.78;;;;;;;14.10;100.00;96335.88;6149226;23;19994;-65
2022/10/12 08:30:42;;;;;;;8.55;4.50;;;;;;;14.15;100.00;96333.63;6175789;23;20001;-65
2022/10/12 08:33:08;;;;;;;6.20;4.57;;;;;;;14.23;100.00;96327.56;6175260;23;20066;-66
2022/10/12 08:35:36;;;;;;;4.80;3.80;;;;;;;14.30;100.00;96336.59;6175535;23;20087;-65
2022/10/12 08:38:01;;;;;;;6.47;3.78;;;;;;;14.41;100.00;96332.91;6175515;23;20321;-66
2022/10/12 08:40:32;;;;;;;4.85;3.92;;;;;;;14.54;100.00;96326.38;6176146;23;20006;-65
2022/10/12 08:43:31;;;;;;;4.30;3.92;;;;;;;14.61;100.00;96322.97;6175651;23;19997;-70
2022/10/12 08:45:58;;;;;;;3.83;3.53;;;;;;;14.69;100.00;96330.19;6175319;23;20024;-70
2022/10/12 08:48:28;;;;;;;9.25;3.75;;;;;;;14.78;100.00;96333.75;6175793;23;20001;-70
2022/10/12 08:51:00;;;;;;;8.45;3.58;;;;;;;14.82;100.00;96334.31;6177500;23;20001;-70
2022/10/12 08:53:52;;;;;;;4.75;3.97;;;;;;;14.81;100.00;96325.50;6177205;23;20003;-69
2022/10/12 08:56:19;;;;;;;9.68;3.65;;;;;;;14.85;100.00;96321.56;6175367;23;20005;-69
2022/10/12 08:58:46;;;;;;;6.82;3.53;;;;;;;14.94;100.00;96326.94;6176924;23;20051;-66
2022/10/12 09:01:19;;;;;;;4.95;3.67;;;;;;;15.02;97.70;96327.00;6177262;23;20081;-57
2022/10/12 09:03:52;;;;;;;5.93;3.50;;;;;;;15.08;97.36;96321.06;6176675;23;20508;-62
2022/10/12 09:06:21;;;;;;;7.40;3.13;;;;;;;15.21;97.65;96327.78;6175806;23;20042;-62
2022/10/12 09:09:08;;;;;;;11.48;3.63;;;;;;;15.24;95.67;96317.69;6176478;23;20001;-62
2022/10/12 09:11:39;;;;;;;5.72;3.30;;;;;;;15.33;95.53;96322.06;6177239;23;20005;-62
2022/10/12 09:14:09;;;;;;;3.20;3.00;;;;;;;15.40;93.70;96321.44;6150000;23;20447;-62
2022/10/12 09:16:41;;;;;;;5.53;3.53;;;;;;;15.38;93.92;96318.13;6150309;22;20424;-62
2022/10/12 09:19:36;;;;;;;8.73;3.10;;;;;;;15.40;91.21;96318.78;6176578;23;20017;-56
2022/10/12 09:22:03;;;;;;;4.78;3.88;;;;;;;15.39;94.47;96314.47;6176805;23;20008;-60
2022/10/12 09:24:34;;;;;;;11.32;3.67;;;;;;;15.40;94.72;96321.44;6176771;23;20071;-60
2022/10/12 09:27:11;;;;;;;6.43;3.40;;;;;;;15.45;95.30;96325.28;6176203;23;20031;-60
2022/10/12 09:29:37;;;;;;;8.18;3.53;;;;;;;15.44;95.10;96322.78;6176388;23;19997;-60
2022/10/12 09:32:35;;;;;;;3.90;3.50;;;;;;;15.44;93.57;96326.28;6176760;23;20015;-59
2022/10/12 09:35:03;;;;;;;6.80;4.47;;;;;;;15.45;94.20;96330.59;6176392;23;20013;-60
2022/10/12 09:37:31;;;;;;;5.28;3.80;;;;;;;15.51;94.90;96326.50;6176076;23;20001;-61
2022/10/12 09:39:57;;;;;;;5.22;3.20;;;;;;;15.55;95.80;96330.50;6176998;23;20001;-71
2022/10/12 09:42:23;;;;;;;7.00;3.80;;;;;;;15.45;94.19;96329.75;6150856;22;20005;-69
2022/10/12 09:45:13;;;;;;;7.22;3.72;;;;;;;15.43;95.06;96329.06;6176569;23;20324;-69
2022/10/12 09:47:38;;;;;;;6.53;3.97;;;;;;;15.53;94.46;96329.81;6175923;23;20051;-69
2022/10/12 09:50:06;;;;;;;9.70;3.40;;;;;;;15.53;94.17;96331.63;6176212;23;20354;-69
2022/10/12 09:52:34;;;;;;;8.90;3.53;;;;;;;15.60;95.52;96332.69;6176350;23;20003;-69
2022/10/12 09:55:04;;;;;;;8.07;3.80;;;;;;;15.70;95.64;96335.22;6176393;23;20447;-69
2022/10/12 09:57:32;;;;;;;7.65;3.70;;;;;;;15.78;94.46;96326.44;6176076;23;20005;-66
2022/10/12 09:59:59;;;;;;;7.38;5.85;;;;;;;15.76;96.65;96331.91;6176319;23;20025;-69
2022/10/12 10:02:26;;;;;;;9.63;5.45;;;;;;;15.97;98.06;96328.88;6176355;23;20075;-66
2022/10/12 10:04:53;;;;;;;14.25;6.15;;;;;;;16.14;97.12;96328.94;6176666;23;20025;-66
2022/10/12 10:07:25;;;;;;;11.57;6.15;;;;;;;15.98;97.10;96333.19;6176032;23;20035;-66
2022/10/12 10:10:22;;;;;;;12.02;6.45;;;;;;;15.87;98.03;96328.97;6176794;23;20005;-66
2022/10/12 10:12:55;;;;;;;15.20;6.05;;;;;;;15.86;99.33;96322.00;6176589;23;20030;-66
2022/10/12 10:15:26;;;;;;;9.43;6.70;;;;;;;15.87;97.12;96323.66;6176609;23;20001;-65
2022/10/12 10:17:55;;;;;;;11.43;6.30;;;;;;;15.95;96.46;96325.56;6176201;23;20001;-70
2022/10/12 10:20:46;;;;;;;12.75;6.07;;;;;;;15.85;98.72;96325.66;6176169;23;20013;-57
2022/10/12 10:23:27;;;;;;;11.93;5.88;;;;;;;15.98;97.82;96325.22;6154249;23;20058;-55
2022/10/12 10:26:03;;;;;;;11.45;5.65;;;;;;;16.16;98.39;96327.78;6148947;22;20009;-55
2022/10/12 10:28:32;;;;;;;7.03;5.88;;;;;;;16.37;96.04;96321.22;6173236;23;19997;-55
2022/10/12 10:31:03;;;;;;;11.07;6.57;;;;;;;16.51;95.55;96318.88;6176739;23;20076;-57
2022/10/12 10:33:31;;;;;;;10.07;6.15;;;;;;;16.57;93.50;96323.53;6176619;23;20443;-56
2022/10/12 10:36:04;;;;;;;6.85;5.82;;;;;;;16.65;93.93;96322.72;6175658;23;19997;-69
2022/10/12 10:38:32;;;;;;;10.90;5.53;;;;;;;16.79;90.43;96321.22;6174533;23;20476;-72
2022/10/12 10:41:01;;;;;;;9.60;4.93;;;;;;;16.79;90.31;96324.75;6174811;23;20076;-68
2022/10/12 10:43:29;;;;;;;8.82;5.63;;;;;;;16.85;92.11;96318.75;6175193;23;20079;-69
2022/10/12 10:46:01;;;;;;;17.10;5.50;;;;;;;16.95;90.67;96321.25;6149001;22;20030;-69
2022/10/12 10:48:47;;;;;;;12.85;5.20;;;;;;;17.03;92.32;96329.28;6174720;23;20004;-69
2022/10/12 10:51:13;;;;;;;8.85;5.65;;;;;;;16.93;91.42;96322.44;6173805;23;20012;-70
2022/10/12 10:53:47;;;;;;;9.13;5.85;;;;;;;17.00;91.68;96321.59;6174968;23;20009;-68
2022/10/12 10:56:16;;;;;;;9.10;5.30;;;;;;;17.13;90.00;96321.13;6176211;22;20092;-68
2022/10/12 10:58:49;;;;;;;8.60;5.32;;;;;;;17.10;88.92;96324.09;6174763;23;20332;-65
2022/10/12 11:01:37;;;;;;;10.07;5.40;;;;;;;17.32;86.21;96327.06;6150162;22;20005;-66
2022/10/12 11:04:26;;;;;;;9.20;5.18;;;;;;;16.86;89.93;96311.63;6174625;23;20005;-66
2022/10/12 11:06:56;;;;;;;5.40;4.72;;;;;;;16.95;88.38;96310.59;6174833;22;20438;-66
2022/10/12 11:09:29;;;;;;;8.20;5.20;;;;;;;16.95;88.20;96307.13;6175253;23;20005;-67
2022/10/12 11:12:03;;;;;;;7.63;5.28;;;;;;;17.47;86.73;96314.72;6174844;23;20428;-66
2022/10/12 11:14:51;;;;;;;8.67;5.30;;;;;;;17.18;87.86;96304.63;6175034;23;20004;-69
2022/10/12 11:17:41;;;;;;;5.65;5.13;;;;;;;17.38;87.12;96306.94;6174508;23;20896;-67
2022/10/12 11:20:36;;;;;;;8.30;5.40;;;;;;;17.35;88.11;96304.63;6175170;23;20024;-66
2022/10/12 11:23:41;;;;;;;10.55;5.63;;;;;;;17.38;85.47;96291.81;6175656;23;19997;-65
2022/10/12 11:26:21;;;;;;;9.07;5.88;;;;;;;17.50;87.17;96296.75;6176522;23;20013;-65
2022/10/12 11:28:47;;;;;;;6.32;5.43;;;;;;;17.64;87.67;96295.22;6175847;23;20027;-66
2022/10/12 11:31:36;;;;;;;12.38;6.35;;;;;;;17.38;88.79;96297.13;6176226;23;20432;-66
2022/10/12 11:34:05;;;;;;;13.75;6.32;;;;;;;17.40;88.54;96300.44;6175318;23;20451;-71
2022/10/12 11:36:35;;;;;;;8.15;5.95;;;;;;;17.42;89.36;96290.47;6176183;23;20034;-68